createdAt,value
2019-05-26T00:00:42.526Z,783.56
2019-05-26T00:01:42.529Z,783.50
2019-05-26T00:02:42.497Z,783.51
2019-05-26T00:03:42.489Z,783.50
2019-05-26T00:04:42.473Z,783.43
2019-05-26T00:05:42.477Z,783.41
2019-05-26T00:06:42.480Z,783.43
2019-05-26T00:07:42.468Z,783.42
2019-05-26T00:08:42.441Z,783.37
2019-05-26T00:09:42.418Z,783.37
2019-05-26T00:10:42.428Z,783.37
2019-05-26T00:11:42.422Z,783.38
2019-05-26T00:12:42.397Z,783.37
2019-05-26T00:13:42.376Z,783.40
2019-05-26T00:14:42.363Z,783.40
2019-05-26T00:15:42.353Z,783.43
2019-05-26T00:16:42.370Z,783.44
2019-05-26T00:17:42.335Z,783.47
2019-05-26T00:18:42.339Z,783.50
2019-05-26T00:19:42.304Z,783.52
2019-05-26T00:20:42.301Z,783.53
2019-05-26T00:21:42.305Z,783.59
2019-05-26T00:22:42.273Z,783.65
2019-05-26T00:23:42.274Z,783.67
2019-05-26T00:24:42.265Z,783.72
2019-05-26T00:25:42.239Z,783.76
2019-05-26T00:26:42.258Z,783.75
2019-05-26T00:27:42.238Z,783.76
2019-05-26T00:28:42.221Z,783.77
2019-05-26T00:29:42.209Z,783.71
2019-05-26T00:30:42.197Z,783.71
2019-05-26T00:31:42.211Z,783.69
2019-05-26T00:32:42.173Z,783.65
2019-05-26T00:33:42.159Z,783.69
2019-05-26T00:34:42.146Z,783.66
2019-05-26T00:35:42.136Z,783.68
2019-05-26T00:36:42.159Z,783.71
2019-05-26T00:37:50.474Z,783.66
2019-05-26T00:38:42.124Z,783.65
2019-05-26T00:39:42.100Z,783.71
2019-05-26T00:40:42.087Z,783.69
2019-05-26T00:41:42.111Z,783.72
2019-05-26T00:42:42.098Z,783.71
2019-05-26T00:43:42.041Z,783.74
2019-05-26T00:44:42.043Z,783.74
2019-05-26T00:45:42.035Z,783.81
2019-05-26T00:46:42.024Z,783.80
2019-05-26T00:47:42.018Z,783.82
2019-05-26T00:48:41.988Z,783.85
2019-05-26T00:49:41.977Z,783.86
2019-05-26T00:50:41.965Z,783.87
2019-05-26T00:51:41.968Z,783.88
2019-05-26T00:52:41.971Z,783.83
2019-05-26T00:53:41.945Z,783.79
2019-05-26T00:54:41.937Z,783.78
2019-05-26T00:55:41.927Z,783.77
2019-05-26T00:56:41.919Z,783.75
2019-05-26T00:57:41.928Z,783.73
2019-05-26T00:58:41.879Z,783.71
2019-05-26T00:59:41.888Z,783.73
2019-05-26T01:00:41.878Z,783.76
2019-05-26T01:01:41.863Z,783.75
2019-05-26T01:03:51.058Z,783.82
2019-05-26T01:04:52.029Z,783.66
2019-05-26T01:05:52.018Z,783.65
2019-05-26T01:06:51.994Z,783.64
2019-05-26T01:08:05.206Z,783.65
2019-05-26T01:08:51.986Z,783.65
2019-05-26T01:09:51.976Z,783.64
2019-05-26T01:10:51.960Z,783.67
2019-05-26T01:11:51.954Z,783.63
2019-05-26T01:12:51.972Z,783.62
2019-05-26T01:13:51.932Z,783.62
2019-05-26T01:14:51.910Z,783.62
2019-05-26T01:15:51.906Z,783.60
2019-05-26T01:16:55.629Z,783.59
2019-05-26T01:17:51.899Z,783.58
2019-05-26T01:18:51.888Z,783.57
2019-05-26T01:19:51.865Z,783.63
2019-05-26T01:20:51.846Z,783.69
2019-05-26T01:21:51.837Z,783.67
2019-05-26T01:22:53.868Z,783.71
2019-05-26T01:23:51.811Z,783.70
2019-05-26T01:24:51.803Z,783.75
2019-05-26T01:25:51.794Z,783.77
2019-05-26T01:26:51.799Z,783.80
2019-05-26T01:27:51.800Z,783.85
2019-05-26T01:28:51.759Z,783.90
2019-05-26T01:29:51.764Z,783.92
2019-05-26T01:30:51.738Z,783.95
2019-05-26T01:31:51.726Z,783.97
2019-05-26T01:32:51.737Z,784.00
2019-05-26T01:33:51.725Z,784.01
2019-05-26T01:34:51.698Z,784.08
2019-05-26T01:35:51.692Z,784.14
2019-05-26T01:36:51.680Z,784.12
2019-05-26T01:37:51.689Z,784.14
2019-05-26T01:38:51.663Z,784.16
2019-05-26T01:39:51.647Z,784.19
2019-05-26T01:40:51.642Z,784.22
2019-05-26T01:41:51.643Z,784.24
2019-05-26T01:42:51.656Z,784.23
2019-05-26T01:43:51.600Z,784.25
2019-05-26T01:44:51.585Z,784.23
2019-05-26T01:45:51.584Z,784.26
2019-05-26T01:46:51.563Z,784.34
2019-05-26T01:47:51.572Z,784.34
2019-05-26T01:48:51.561Z,784.24
2019-05-26T01:49:51.539Z,784.24
2019-05-26T01:50:51.524Z,784.28
2019-05-26T01:51:51.515Z,784.32
2019-05-26T01:52:51.497Z,784.33
2019-05-26T01:53:51.510Z,784.39
2019-05-26T01:54:51.486Z,784.32
2019-05-26T01:55:51.472Z,784.30
2019-05-26T01:56:51.453Z,784.33
2019-05-26T01:57:51.448Z,784.34
2019-05-26T01:58:51.461Z,784.40
2019-05-26T01:59:51.421Z,784.41
2019-05-26T02:00:51.417Z,784.46
2019-05-26T02:01:51.403Z,784.44
2019-05-26T02:02:51.383Z,784.48
2019-05-26T02:03:51.404Z,784.46
2019-05-26T02:04:51.405Z,784.50
2019-05-26T02:05:52.295Z,784.50
2019-05-26T02:06:51.364Z,784.53
2019-05-26T02:07:51.334Z,784.47
2019-05-26T02:08:51.351Z,784.42
2019-05-26T02:09:51.311Z,784.43
2019-05-26T02:10:51.301Z,784.38
2019-05-26T02:11:51.306Z,784.28
2019-05-26T02:12:51.286Z,784.33
2019-05-26T02:13:51.294Z,784.28
2019-05-26T02:14:51.289Z,784.34
2019-05-26T02:15:51.254Z,784.24
2019-05-26T02:16:51.247Z,784.19
2019-05-26T02:17:51.224Z,784.20
2019-05-26T02:18:51.306Z,784.15
2019-05-26T02:19:51.221Z,784.14
2019-05-26T02:20:51.201Z,784.11
2019-05-26T02:21:51.201Z,784.14
2019-05-26T02:22:51.181Z,784.13
2019-05-26T02:23:51.185Z,784.15
2019-05-26T02:24:51.159Z,784.19
2019-05-26T02:25:51.189Z,784.20
2019-05-26T02:26:51.352Z,784.12
2019-05-26T02:27:51.115Z,784.13
2019-05-26T02:28:51.122Z,784.09
2019-05-26T02:29:51.096Z,784.10
2019-05-26T02:30:51.091Z,784.08
2019-05-26T02:31:51.087Z,784.11
2019-05-26T02:32:51.072Z,784.09
2019-05-26T02:33:51.089Z,784.10
2019-05-26T02:34:51.039Z,784.11
2019-05-26T02:35:51.029Z,784.18
2019-05-26T02:36:51.027Z,784.16
2019-05-26T02:37:51.011Z,784.16
2019-05-26T02:39:02.051Z,784.16
2019-05-26T02:39:51.000Z,784.17
2019-05-26T02:40:50.997Z,784.17
2019-05-26T02:41:50.964Z,784.16
2019-05-26T02:42:50.954Z,784.16
2019-05-26T02:43:50.976Z,784.16
2019-05-26T02:44:50.941Z,784.14
2019-05-26T02:45:50.929Z,784.18
2019-05-26T02:46:50.917Z,784.19
2019-05-26T02:47:50.896Z,784.13
2019-05-26T02:48:50.911Z,784.11
2019-05-26T02:49:50.889Z,784.11
2019-05-26T02:50:50.870Z,784.08
2019-05-26T02:51:50.861Z,784.08
2019-05-26T02:52:50.846Z,784.08
2019-05-26T02:53:50.849Z,784.09
2019-05-26T02:54:50.831Z,784.11
2019-05-26T02:55:50.816Z,784.14
2019-05-26T02:56:50.799Z,784.15
2019-05-26T02:57:50.822Z,784.17
2019-05-26T02:58:50.797Z,784.17
2019-05-26T02:59:50.773Z,784.16
2019-05-26T03:00:50.765Z,784.12
2019-05-26T03:02:02.910Z,784.15
2019-05-26T03:02:50.750Z,784.13
2019-05-26T03:04:59.942Z,784.32
2019-05-26T03:06:00.906Z,784.15
2019-05-26T03:07:00.891Z,784.17
2019-05-26T03:08:00.876Z,784.16
2019-05-26T03:09:18.526Z,784.19
2019-05-26T03:10:00.875Z,784.20
2019-05-26T03:11:00.855Z,784.22
2019-05-26T03:12:00.836Z,784.19
2019-05-26T03:13:00.844Z,784.21
2019-05-26T03:14:00.833Z,784.18
2019-05-26T03:15:00.811Z,784.17
2019-05-26T03:16:00.819Z,784.15
2019-05-26T03:17:00.783Z,784.18
2019-05-26T03:18:00.777Z,784.18
2019-05-26T03:19:00.823Z,784.18
2019-05-26T03:20:00.758Z,784.17
2019-05-26T03:21:00.748Z,784.15
2019-05-26T03:22:00.735Z,784.12
2019-05-26T03:23:00.729Z,784.12
2019-05-26T03:24:00.719Z,784.13
2019-05-26T03:25:00.727Z,784.16
2019-05-26T03:26:00.686Z,784.14
2019-05-26T03:27:00.674Z,784.13
2019-05-26T03:28:00.669Z,784.14
2019-05-26T03:29:00.671Z,784.12
2019-05-26T03:30:01.190Z,784.15
2019-05-26T03:31:00.626Z,784.16
2019-05-26T03:32:00.644Z,784.15
2019-05-26T03:33:00.621Z,784.16
2019-05-26T03:34:00.606Z,784.18
2019-05-26T03:35:00.661Z,784.16
2019-05-26T03:36:00.583Z,784.16
2019-05-26T03:37:00.574Z,784.13
2019-05-26T03:38:00.551Z,784.11
2019-05-26T03:39:00.543Z,784.09
2019-05-26T03:40:00.554Z,784.07
2019-05-26T03:41:00.538Z,784.08
2019-05-26T03:42:00.517Z,784.07
2019-05-26T03:43:00.494Z,784.02
2019-05-26T03:44:00.504Z,784.01
2019-05-26T03:45:00.496Z,784.00
2019-05-26T03:46:00.462Z,783.97
2019-05-26T03:47:00.452Z,783.93
2019-05-26T03:48:00.446Z,783.91
2019-05-26T03:49:00.429Z,783.90
2019-05-26T03:50:00.442Z,783.86
2019-05-26T03:51:00.410Z,783.82
2019-05-26T03:52:00.405Z,783.78
2019-05-26T03:53:01.165Z,783.78
2019-05-26T03:54:00.398Z,783.73
2019-05-26T03:55:00.390Z,783.72
2019-05-26T03:56:00.363Z,783.65
2019-05-26T03:57:00.342Z,783.60
2019-05-26T03:58:00.403Z,783.51
2019-05-26T03:59:00.329Z,783.45
2019-05-26T04:00:00.342Z,783.36
2019-05-26T04:01:00.313Z,783.30
2019-05-26T04:02:00.302Z,783.28
2019-05-26T04:03:00.283Z,783.26
2019-05-26T04:04:00.277Z,783.26
2019-05-26T04:05:00.298Z,783.24
2019-05-26T04:06:00.264Z,783.22
2019-05-26T04:07:00.239Z,783.18
2019-05-26T04:08:04.541Z,783.16
2019-05-26T04:09:00.223Z,783.15
2019-05-26T04:10:05.440Z,783.11
2019-05-26T04:11:00.184Z,783.09
2019-05-26T04:12:00.199Z,783.10
2019-05-26T04:13:00.197Z,783.06
2019-05-26T04:14:00.166Z,783.02
2019-05-26T04:15:00.167Z,782.96
2019-05-26T04:16:00.137Z,782.94
2019-05-26T04:17:00.123Z,782.92
2019-05-26T04:18:00.143Z,782.83
2019-05-26T04:19:00.094Z,782.82
2019-05-26T04:20:00.119Z,782.79
2019-05-26T04:21:00.074Z,782.74
2019-05-26T04:22:00.089Z,782.67
2019-05-26T04:23:00.068Z,782.66
2019-05-26T04:24:00.051Z,782.64
2019-05-26T04:25:00.065Z,782.61
2019-05-26T04:26:00.019Z,782.54
2019-05-26T04:27:00.007Z,782.50
2019-05-26T04:28:00.004Z,782.47
2019-05-26T04:28:59.995Z,782.39
2019-05-26T04:29:59.998Z,782.34
2019-05-26T04:30:59.993Z,782.30
2019-05-26T04:32:02.109Z,782.27
2019-05-26T04:32:59.946Z,782.25
2019-05-26T04:33:59.937Z,782.19
2019-05-26T04:34:59.998Z,782.14
2019-05-26T04:35:59.939Z,782.05
2019-05-26T04:36:59.898Z,782.05
2019-05-26T04:37:59.897Z,781.99
2019-05-26T04:38:59.874Z,781.94
2019-05-26T04:40:28.628Z,781.96
2019-05-26T04:41:29.664Z,781.76
2019-05-26T04:42:29.576Z,781.58
2019-05-26T04:43:29.572Z,781.51
2019-05-26T04:44:29.565Z,781.41
2019-05-26T04:45:29.568Z,781.30
2019-05-26T04:46:29.530Z,781.22
2019-05-26T04:47:29.532Z,781.17
2019-05-26T04:48:29.520Z,781.07
2019-05-26T04:49:29.510Z,780.92
2019-05-26T04:50:29.501Z,780.88
2019-05-26T04:51:29.475Z,780.71
2019-05-26T04:52:29.476Z,780.57
2019-05-26T04:53:29.470Z,780.40
2019-05-26T04:54:29.450Z,780.33
2019-05-26T04:55:29.463Z,780.28
2019-05-26T04:56:29.437Z,780.18
2019-05-26T04:57:29.407Z,780.13
2019-05-26T04:58:29.403Z,780.12
2019-05-26T04:59:29.395Z,780.11
2019-05-26T05:00:29.409Z,780.20
2019-05-26T05:01:29.365Z,780.21
2019-05-26T05:02:29.359Z,780.19
2019-05-26T05:03:29.348Z,780.11
2019-05-26T05:04:29.337Z,780.20
2019-05-26T05:05:29.337Z,780.14
2019-05-26T05:06:29.343Z,780.09
2019-05-26T05:07:29.313Z,780.07
2019-05-26T05:08:29.295Z,780.09
2019-05-26T05:09:29.280Z,780.08
2019-05-26T05:10:41.754Z,780.12
2019-05-26T05:11:29.263Z,780.17
2019-05-26T05:12:29.250Z,780.10
2019-05-26T05:13:29.251Z,780.04
2019-05-26T05:14:29.235Z,779.96
2019-05-26T05:15:29.225Z,779.93
2019-05-26T05:16:29.217Z,779.90
2019-05-26T05:17:29.195Z,779.77
2019-05-26T05:18:29.186Z,779.72
2019-05-26T05:19:29.178Z,779.61
2019-05-26T05:20:29.177Z,779.51
2019-05-26T05:21:29.184Z,779.45
2019-05-26T05:22:29.146Z,779.41
2019-05-26T05:23:29.128Z,779.45
2019-05-26T05:24:29.112Z,779.38
2019-05-26T05:25:29.105Z,779.35
2019-05-26T05:26:29.127Z,779.38
2019-05-26T05:27:29.089Z,779.32
2019-05-26T05:28:29.068Z,779.34
2019-05-26T05:29:29.068Z,779.30
2019-05-26T05:30:29.053Z,779.27
2019-05-26T05:31:29.066Z,779.27
2019-05-26T05:32:32.720Z,779.23
2019-05-26T05:33:29.019Z,779.12
2019-05-26T05:34:29.012Z,779.00
2019-05-26T05:35:28.999Z,778.91
2019-05-26T05:36:29.012Z,778.83
2019-05-26T05:37:28.984Z,778.78
2019-05-26T05:38:28.971Z,778.70
2019-05-26T05:39:28.965Z,778.54
2019-05-26T05:40:28.955Z,778.63
2019-05-26T05:41:28.946Z,778.56
2019-05-26T05:42:28.927Z,778.45
2019-05-26T05:43:28.917Z,778.29
2019-05-26T05:44:28.924Z,778.23
2019-05-26T05:45:28.895Z,778.14
2019-05-26T05:46:28.917Z,778.04
2019-05-26T05:47:28.876Z,777.87
2019-05-26T05:48:28.863Z,777.78
2019-05-26T05:49:28.848Z,777.61
2019-05-26T05:50:28.839Z,777.58
2019-05-26T05:51:28.863Z,777.49
2019-05-26T05:52:28.815Z,777.38
2019-05-26T05:53:28.792Z,777.38
2019-05-26T05:54:28.799Z,777.22
2019-05-26T05:55:28.781Z,776.99
2019-05-26T05:56:28.905Z,776.94
2019-05-26T05:57:28.802Z,776.77
2019-05-26T05:58:28.744Z,776.70
2019-05-26T05:59:28.762Z,776.55
2019-05-26T06:00:28.729Z,776.67
2019-05-26T06:01:28.746Z,776.76
2019-05-26T06:02:28.715Z,776.66
2019-05-26T06:03:28.693Z,776.88
2019-05-26T06:04:28.675Z,777.24
2019-05-26T06:05:28.674Z,777.19
2019-05-26T06:06:28.674Z,776.95
2019-05-26T06:07:28.653Z,776.87
2019-05-26T06:08:28.639Z,776.83
2019-05-26T06:09:28.626Z,776.84
2019-05-26T06:10:28.615Z,776.90
2019-05-26T06:11:28.634Z,776.93
2019-05-26T06:12:28.620Z,776.81
2019-05-26T06:13:28.595Z,776.79
2019-05-26T06:14:28.579Z,776.85
2019-05-26T06:15:28.566Z,776.78
2019-05-26T06:16:28.565Z,776.66
2019-05-26T06:17:28.614Z,776.51
2019-05-26T06:18:28.534Z,776.61
2019-05-26T06:19:28.526Z,776.50
2019-05-26T06:20:28.522Z,776.38
2019-05-26T06:21:28.508Z,776.18
2019-05-26T06:22:28.519Z,775.97
2019-05-26T06:23:28.472Z,775.92
2019-05-26T06:24:28.475Z,776.11
2019-05-26T06:25:28.485Z,776.24
2019-05-26T06:26:28.454Z,776.46
2019-05-26T06:27:28.451Z,776.50
2019-05-26T06:28:28.427Z,776.45
2019-05-26T06:29:28.408Z,776.39
2019-05-26T06:30:28.393Z,776.19
2019-05-26T06:31:28.397Z,775.86
2019-05-26T06:32:28.388Z,775.87
2019-05-26T06:33:28.372Z,775.59
2019-05-26T06:34:28.361Z,775.76
2019-05-26T06:35:28.348Z,775.72
2019-05-26T06:36:28.332Z,775.35
2019-05-26T06:37:28.350Z,775.09
2019-05-26T06:38:28.317Z,774.76
2019-05-26T06:39:28.324Z,774.40
2019-05-26T06:41:37.489Z,775.06
2019-05-26T06:42:38.478Z,775.00
2019-05-26T06:43:38.457Z,775.07
2019-05-26T06:44:52.577Z,775.14
2019-05-26T06:45:38.429Z,775.33
2019-05-26T06:46:38.424Z,775.35
2019-05-26T06:47:38.457Z,775.14
2019-05-26T06:48:38.391Z,775.24
2019-05-26T06:49:38.378Z,775.29
2019-05-26T06:50:38.382Z,775.19
2019-05-26T06:51:38.395Z,775.14
2019-05-26T06:52:38.387Z,775.24
2019-05-26T06:53:38.351Z,775.05
2019-05-26T06:54:38.335Z,775.12
2019-05-26T06:55:38.330Z,775.03
2019-05-26T06:56:38.303Z,775.22
2019-05-26T06:57:38.323Z,775.10
2019-05-26T06:58:38.281Z,775.02
2019-05-26T06:59:38.271Z,774.81
2019-05-26T07:00:38.278Z,774.62
2019-05-26T07:01:38.259Z,774.37
2019-05-26T07:02:38.274Z,774.14
2019-05-26T07:03:38.227Z,774.57
2019-05-26T07:04:38.218Z,774.58
2019-05-26T07:05:38.221Z,775.08
2019-05-26T07:06:38.195Z,775.23
2019-05-26T07:07:38.203Z,774.88
2019-05-26T07:08:38.169Z,774.59
2019-05-26T07:09:38.153Z,774.63
2019-05-26T07:10:38.150Z,774.73
2019-05-26T07:11:52.065Z,774.53
2019-05-26T07:12:38.126Z,774.36
2019-05-26T07:13:38.113Z,774.77
2019-05-26T07:14:38.127Z,774.65
2019-05-26T07:15:38.099Z,774.54
2019-05-26T07:16:38.977Z,774.39
2019-05-26T07:17:38.095Z,774.37
2019-05-26T07:18:38.066Z,774.32
2019-05-26T07:19:38.045Z,774.34
2019-05-26T07:20:38.052Z,774.51
2019-05-26T07:21:38.089Z,774.21
2019-05-26T07:22:38.040Z,774.17
2019-05-26T07:23:38.026Z,773.77
2019-05-26T07:24:37.999Z,773.71
2019-05-26T07:25:37.989Z,773.75
2019-05-26T07:26:37.963Z,773.67
2019-05-26T07:27:37.974Z,773.73
2019-05-26T07:28:37.952Z,773.77
2019-05-26T07:29:37.931Z,773.82
2019-05-26T07:30:37.931Z,774.09
2019-05-26T07:31:37.924Z,774.16
2019-05-26T07:32:37.935Z,773.84
2019-05-26T07:33:37.887Z,773.64
2019-05-26T07:34:37.875Z,773.86
2019-05-26T07:35:37.886Z,773.84
2019-05-26T07:36:37.857Z,773.72
2019-05-26T07:37:37.862Z,773.61
2019-05-26T07:38:37.854Z,773.46
2019-05-26T07:39:37.834Z,773.10
2019-05-26T07:40:37.814Z,773.04
2019-05-26T07:41:37.838Z,773.26
2019-05-26T07:42:37.830Z,773.27
2019-05-26T07:43:37.830Z,773.29
2019-05-26T07:44:37.772Z,773.23
2019-05-26T07:45:37.760Z,773.11
2019-05-26T07:46:37.753Z,772.95
2019-05-26T07:47:37.764Z,773.19
2019-05-26T07:48:37.734Z,773.47
2019-05-26T07:49:37.724Z,773.80
2019-05-26T07:50:37.708Z,773.82
2019-05-26T07:51:37.707Z,773.93
2019-05-26T07:52:37.701Z,774.12
2019-05-26T07:53:37.676Z,774.15
2019-05-26T07:54:37.669Z,774.06
2019-05-26T07:55:37.645Z,773.83
2019-05-26T07:56:37.638Z,773.95
2019-05-26T07:57:37.653Z,773.92
2019-05-26T07:58:37.618Z,774.05
2019-05-26T07:59:37.607Z,774.00
2019-05-26T08:00:37.595Z,774.09
2019-05-26T08:01:37.590Z,774.14
2019-05-26T08:02:37.599Z,773.88
2019-05-26T08:03:37.571Z,773.64
2019-05-26T08:04:37.559Z,773.37
2019-05-26T08:05:37.570Z,773.23
2019-05-26T08:06:37.550Z,773.24
2019-05-26T08:07:37.553Z,773.23
2019-05-26T08:08:37.498Z,773.24
2019-05-26T08:09:37.514Z,773.21
2019-05-26T08:10:37.543Z,772.94
2019-05-26T08:11:37.478Z,772.66
2019-05-26T08:12:37.494Z,772.54
2019-05-26T08:13:37.456Z,772.40
2019-05-26T08:14:37.443Z,772.05
2019-05-26T08:15:37.434Z,771.82
2019-05-26T08:16:37.426Z,771.53
2019-05-26T08:17:37.422Z,771.26
2019-05-26T08:18:37.393Z,771.61
2019-05-26T08:19:37.390Z,771.53
2019-05-26T08:20:37.376Z,771.70
2019-05-26T08:21:37.365Z,772.05
2019-05-26T08:22:37.385Z,772.21
2019-05-26T08:23:37.347Z,772.30
2019-05-26T08:24:37.339Z,772.14
2019-05-26T08:25:37.321Z,771.86
2019-05-26T08:26:37.309Z,771.95
2019-05-26T08:27:37.319Z,772.58
2019-05-26T08:28:37.289Z,772.69
2019-05-26T08:29:37.267Z,772.39
2019-05-26T08:30:37.261Z,772.33
2019-05-26T08:31:37.257Z,772.21
2019-05-26T08:32:37.258Z,772.09
2019-05-26T08:33:37.241Z,771.40
2019-05-26T08:34:37.228Z,771.62
2019-05-26T08:35:37.215Z,771.22
2019-05-26T08:36:37.210Z,770.98
2019-05-26T08:37:37.200Z,770.96
2019-05-26T08:38:37.195Z,771.11
2019-05-26T08:39:37.160Z,771.59
2019-05-26T08:40:37.156Z,771.31
2019-05-26T08:42:46.365Z,771.75
2019-05-26T08:43:47.331Z,771.76
2019-05-26T08:44:47.321Z,771.74
2019-05-26T08:45:47.310Z,771.71
2019-05-26T08:46:47.294Z,771.87
2019-05-26T08:47:47.305Z,771.91
2019-05-26T08:48:47.268Z,771.66
2019-05-26T08:49:47.271Z,771.29
2019-05-26T08:50:47.242Z,771.17
2019-05-26T08:51:47.240Z,770.92
2019-05-26T08:52:47.248Z,771.32
2019-05-26T08:53:47.272Z,771.33
2019-05-26T08:54:47.232Z,771.31
2019-05-26T08:55:47.213Z,771.33
2019-05-26T08:56:47.206Z,771.46
2019-05-26T08:57:47.180Z,771.46
2019-05-26T08:58:47.180Z,771.15
2019-05-26T08:59:47.147Z,771.20
2019-05-26T09:00:47.144Z,771.12
2019-05-26T09:01:47.134Z,770.93
2019-05-26T09:02:47.112Z,770.62
2019-05-26T09:03:47.153Z,770.35
2019-05-26T09:04:47.096Z,770.29
2019-05-26T09:05:47.078Z,770.44
2019-05-26T09:06:47.084Z,770.29
2019-05-26T09:07:47.596Z,770.32
2019-05-26T09:08:47.081Z,770.64
2019-05-26T09:09:47.036Z,770.65
2019-05-26T09:10:47.047Z,770.59
2019-05-26T09:11:47.016Z,770.39
2019-05-26T09:12:59.777Z,770.35
2019-05-26T09:13:47.019Z,770.46
2019-05-26T09:14:47.011Z,770.87
2019-05-26T09:15:47.012Z,771.03
2019-05-26T09:16:46.959Z,770.96
2019-05-26T09:17:46.967Z,771.43
2019-05-26T09:18:46.964Z,771.43
2019-05-26T09:19:46.937Z,771.16
2019-05-26T09:20:46.923Z,771.16
2019-05-26T09:21:46.913Z,770.93
2019-05-26T09:22:46.902Z,770.91
2019-05-26T09:23:46.929Z,770.72
2019-05-26T09:24:46.892Z,770.82
2019-05-26T09:25:46.882Z,770.95
2019-05-26T09:26:46.868Z,770.99
2019-05-26T09:27:46.834Z,771.39
2019-05-26T09:28:46.871Z,771.41
2019-05-26T09:29:46.821Z,771.28
2019-05-26T09:30:46.807Z,771.28
2019-05-26T09:31:46.805Z,771.42
2019-05-26T09:32:46.789Z,771.48
2019-05-26T09:33:46.811Z,771.45
2019-05-26T09:34:46.770Z,771.23
2019-05-26T09:35:46.761Z,771.18
2019-05-26T09:36:46.746Z,771.28
2019-05-26T09:37:46.736Z,771.39
2019-05-26T09:38:46.795Z,771.64
2019-05-26T09:39:46.742Z,771.70
2019-05-26T09:40:46.700Z,771.73
2019-05-26T09:41:46.679Z,771.79
2019-05-26T09:42:46.675Z,771.88
2019-05-26T09:43:46.656Z,771.93
2019-05-26T09:44:46.680Z,771.96
2019-05-26T09:45:46.642Z,771.79
2019-05-26T09:46:46.698Z,771.73
2019-05-26T09:47:46.644Z,771.85
2019-05-26T09:48:46.621Z,771.92
2019-05-26T09:49:46.632Z,771.81
2019-05-26T09:50:46.581Z,771.79
2019-05-26T09:51:46.590Z,771.61
2019-05-26T09:52:46.567Z,771.42
2019-05-26T09:53:59.079Z,771.47
2019-05-26T09:54:46.569Z,771.62
2019-05-26T09:55:46.538Z,771.61
2019-05-26T09:56:46.538Z,771.52
2019-05-26T09:57:46.525Z,771.58
2019-05-26T09:58:46.496Z,771.59
2019-05-26T09:59:46.513Z,771.57
2019-05-26T10:00:46.478Z,771.70
2019-05-26T10:01:46.471Z,771.63
2019-05-26T10:02:46.456Z,771.56
2019-05-26T10:03:46.443Z,771.51
2019-05-26T10:04:46.465Z,771.58
2019-05-26T10:05:46.426Z,771.33
2019-05-26T10:06:46.417Z,771.21
2019-05-26T10:07:46.393Z,771.05
2019-05-26T10:08:46.394Z,770.92
2019-05-26T10:09:46.404Z,770.93
2019-05-26T10:10:46.358Z,770.70
2019-05-26T10:11:46.404Z,770.69
2019-05-26T10:12:46.353Z,770.63
2019-05-26T10:13:46.329Z,770.64
2019-05-26T10:14:47.879Z,770.39
2019-05-26T10:15:46.313Z,770.09
2019-05-26T10:16:46.337Z,770.34
2019-05-26T10:17:46.295Z,770.69
2019-05-26T10:18:46.296Z,770.56
2019-05-26T10:19:46.295Z,770.40
2019-05-26T10:20:46.263Z,770.09
2019-05-26T10:21:46.254Z,769.86
2019-05-26T10:22:46.238Z,769.86
2019-05-26T10:23:46.219Z,769.88
2019-05-26T10:24:46.227Z,769.76
2019-05-26T10:25:46.226Z,769.54
2019-05-26T10:26:46.196Z,769.53
2019-05-26T10:27:46.185Z,769.39
2019-05-26T10:28:46.194Z,769.98
2019-05-26T10:29:46.161Z,769.72
2019-05-26T10:30:46.161Z,769.84
2019-05-26T10:31:46.131Z,769.54
2019-05-26T10:32:46.128Z,769.15
2019-05-26T10:33:46.113Z,769.54
2019-05-26T10:34:46.107Z,769.72
2019-05-26T10:35:46.109Z,769.52
2019-05-26T10:36:46.635Z,769.19
2019-05-26T10:37:46.062Z,768.95
2019-05-26T10:38:46.084Z,769.00
2019-05-26T10:39:46.048Z,768.94
2019-05-26T10:40:46.065Z,768.56
2019-05-26T10:41:46.026Z,768.99
2019-05-26T10:43:55.216Z,769.20
2019-05-26T10:44:56.195Z,768.67
2019-05-26T10:45:56.204Z,768.29
2019-05-26T10:46:56.180Z,767.99
2019-05-26T10:47:56.162Z,767.85
2019-05-26T10:48:56.157Z,767.97
2019-05-26T10:49:56.146Z,768.49
2019-05-26T10:50:56.148Z,768.65
2019-05-26T10:51:56.128Z,768.58
2019-05-26T10:52:56.137Z,768.53
2019-05-26T10:53:56.101Z,768.67
2019-05-26T10:54:56.984Z,768.81
2019-05-26T10:55:56.102Z,768.57
2019-05-26T10:56:56.072Z,768.61
2019-05-26T10:57:56.068Z,768.73
2019-05-26T10:58:56.048Z,769.30
2019-05-26T10:59:56.049Z,769.36
2019-05-26T11:00:56.045Z,769.03
2019-05-26T11:01:56.013Z,768.69
2019-05-26T11:02:56.003Z,768.55
2019-05-26T11:03:55.990Z,768.46
2019-05-26T11:04:56.016Z,768.40
2019-05-26T11:05:55.977Z,768.49
2019-05-26T11:06:55.977Z,768.36
2019-05-26T11:07:55.950Z,768.28
2019-05-26T11:08:55.935Z,768.27
2019-05-26T11:09:55.931Z,768.33
2019-05-26T11:10:55.917Z,768.69
2019-05-26T11:11:55.946Z,768.71
2019-05-26T11:12:55.897Z,768.72
2019-05-26T11:14:02.970Z,768.74
2019-05-26T11:14:55.871Z,769.01
2019-05-26T11:15:55.856Z,768.88
2019-05-26T11:16:55.875Z,768.92
2019-05-26T11:17:55.843Z,769.10
2019-05-26T11:18:55.827Z,768.65
2019-05-26T11:19:55.808Z,768.16
2019-05-26T11:20:55.805Z,768.32
2019-05-26T11:21:55.813Z,768.56
2019-05-26T11:22:55.780Z,768.65
2019-05-26T11:23:55.778Z,768.45
2019-05-26T11:24:55.755Z,768.42
2019-05-26T11:25:55.756Z,768.50
2019-05-26T11:27:07.356Z,768.46
2019-05-26T11:27:55.747Z,768.41
2019-05-26T11:28:55.726Z,768.51
2019-05-26T11:29:55.738Z,768.39
2019-05-26T11:30:55.698Z,768.45
2019-05-26T11:31:55.700Z,768.32
2019-05-26T11:32:58.818Z,768.18
2019-05-26T11:33:55.673Z,768.38
2019-05-26T11:35:55.643Z,768.55
2019-05-26T11:36:14.069Z,768.46
2019-05-26T11:36:55.647Z,768.66
2019-05-26T11:37:55.615Z,768.38
2019-05-26T11:38:55.623Z,768.16
2019-05-26T11:39:55.607Z,767.98
2019-05-26T11:40:55.619Z,768.09
2019-05-26T11:41:55.597Z,768.00
2019-05-26T11:42:55.587Z,768.01
2019-05-26T11:43:55.557Z,768.30
2019-05-26T11:44:55.555Z,768.24
2019-05-26T11:45:55.544Z,768.21
2019-05-26T11:46:55.547Z,768.12
2019-05-26T11:47:55.519Z,767.79
2019-05-26T11:48:55.531Z,767.76
2019-05-26T11:49:55.497Z,767.79
2019-05-26T11:50:55.491Z,767.48
2019-05-26T11:51:55.528Z,767.55
2019-05-26T11:52:55.466Z,767.45
2019-05-26T11:53:55.447Z,767.36
2019-05-26T11:54:55.454Z,767.25
2019-05-26T11:55:55.432Z,767.26
2019-05-26T11:56:55.443Z,767.17
2019-05-26T11:57:55.416Z,767.32
2019-05-26T11:58:55.406Z,767.54
2019-05-26T11:59:55.390Z,767.57
2019-05-26T12:00:55.381Z,767.98
2019-05-26T12:01:55.494Z,767.71
2019-05-26T12:02:55.349Z,767.46
2019-05-26T12:03:55.386Z,767.42
2019-05-26T12:04:55.338Z,767.47
2019-05-26T12:05:55.329Z,767.81
2019-05-26T12:06:55.322Z,767.65
2019-05-26T12:07:55.312Z,767.36
2019-05-26T12:08:55.282Z,767.25
2019-05-26T12:09:55.287Z,767.42
2019-05-26T12:10:58.263Z,767.51
2019-05-26T12:11:55.254Z,767.47
2019-05-26T12:12:55.253Z,767.83
2019-05-26T12:13:55.242Z,767.58
2019-05-26T12:14:55.218Z,767.03
2019-05-26T12:15:55.210Z,766.80
2019-05-26T12:16:55.197Z,766.72
2019-05-26T12:17:55.222Z,766.19
2019-05-26T12:18:55.182Z,765.93
2019-05-26T12:19:55.163Z,766.27
2019-05-26T12:20:55.158Z,766.34
2019-05-26T12:21:55.146Z,766.64
2019-05-26T12:22:55.162Z,766.15
2019-05-26T12:23:55.980Z,766.10
2019-05-26T12:24:55.115Z,765.92
2019-05-26T12:25:55.100Z,765.85
2019-05-26T12:26:55.094Z,766.02
2019-05-26T12:27:55.099Z,766.18
2019-05-26T12:28:55.094Z,766.15
2019-05-26T12:29:55.070Z,766.47
2019-05-26T12:30:55.058Z,766.45
2019-05-26T12:31:55.042Z,766.45
2019-05-26T12:32:55.052Z,766.56
2019-05-26T12:33:55.016Z,766.63
2019-05-26T12:34:55.016Z,766.47